createdAt,value
2018-07-04T00:01:23.724Z,18.20
2018-07-04T00:04:09.506Z,18.10
2018-07-04T00:06:55.395Z,17.90
2018-07-04T00:09:41.358Z,17.90
2018-07-04T00:12:27.182Z,17.90
2018-07-04T00:15:12.923Z,18.10
2018-07-04T00:23:23.593Z,18.00
2018-07-04T00:26:09.367Z,18.00
2018-07-04T00:28:55.248Z,18.00
2018-07-04T00:31:41.155Z,17.90
2018-07-04T00:34:27.081Z,17.90
2018-07-04T00:37:12.854Z,17.90
2018-07-04T00:39:58.555Z,17.90
2018-07-04T00:42:44.497Z,17.90
2018-07-04T00:48:10.207Z,17.80
2018-07-04T00:50:55.904Z,17.80
2018-07-04T00:53:41.696Z,17.60
2018-07-04T00:56:27.461Z,17.50
2018-07-04T00:59:13.235Z,17.50
2018-07-04T01:01:58.940Z,17.60
2018-07-04T01:04:44.707Z,17.60
2018-07-04T01:07:30.353Z,17.40
2018-07-04T01:12:55.849Z,17.00
2018-07-04T01:15:41.685Z,17.10
2018-07-04T01:21:12.997Z,17.20
2018-07-04T01:23:58.768Z,17.10
2018-07-04T01:29:25.202Z,17.10
2018-07-04T01:32:11.048Z,17.00
2018-07-04T01:34:56.917Z,17.10
2018-07-04T01:37:42.781Z,17.10
2018-07-04T01:40:28.490Z,17.00
2018-07-04T01:43:14.217Z,16.80
2018-07-04T01:46:00.058Z,16.30
2018-07-04T01:48:45.871Z,16.50
2018-07-04T01:51:31.665Z,16.50
2018-07-04T01:59:37.233Z,16.60
2018-07-04T02:02:23.101Z,16.60
2018-07-04T02:05:08.965Z,16.70
2018-07-04T02:10:34.621Z,16.70
2018-07-04T02:13:20.395Z,16.70
2018-07-04T02:16:06.198Z,16.60
2018-07-04T02:18:52.032Z,16.50
2018-07-04T02:21:38.001Z,16.60
2018-07-04T02:24:23.946Z,16.60
2018-07-04T02:27:09.696Z,16.50
2018-07-04T02:29:55.620Z,16.60
2018-07-04T02:32:41.477Z,16.60
2018-07-04T02:35:27.440Z,16.60
2018-07-04T02:40:53.478Z,16.60
2018-07-04T02:43:39.194Z,16.50
2018-07-04T02:49:10.464Z,16.50
2018-07-04T02:51:56.407Z,16.40
2018-07-04T02:54:42.291Z,16.40
2018-07-04T02:57:28.264Z,16.40
2018-07-04T03:00:13.983Z,16.50
2018-07-04T03:08:19.549Z,16.20
2018-07-04T03:11:05.126Z,16.10
2018-07-04T03:13:51.047Z,16.10
2018-07-04T03:16:36.832Z,16.00
2018-07-04T03:19:22.614Z,16.10
2018-07-04T03:22:08.449Z,16.10
2018-07-04T03:24:54.273Z,16.10
2018-07-04T03:30:19.635Z,16.20
2018-07-04T03:33:05.779Z,16.00
2018-07-04T03:35:51.485Z,16.10
2018-07-04T03:38:37.259Z,16.00
2018-07-04T03:41:23.148Z,16.10
2018-07-04T03:44:09.043Z,16.00
2018-07-04T03:46:54.976Z,16.10
2018-07-04T03:49:40.574Z,16.00
2018-07-04T03:52:26.472Z,15.80
2018-07-04T03:55:12.199Z,16.00
2018-07-04T03:57:57.977Z,15.90
2018-07-04T04:03:23.608Z,15.90
2018-07-04T04:08:49.126Z,16.00
2018-07-04T04:11:34.918Z,16.00
2018-07-04T04:14:20.547Z,16.10
2018-07-04T04:17:06.358Z,16.00
2018-07-04T04:19:52.294Z,16.10
2018-07-04T04:22:38.300Z,16.00
2018-07-04T04:28:03.873Z,15.40
2018-07-04T04:30:49.921Z,15.60
2018-07-04T04:33:35.573Z,15.50
2018-07-04T04:36:21.540Z,15.20
2018-07-04T04:39:07.359Z,15.40
2018-07-04T04:41:53.095Z,15.30
2018-07-04T04:44:38.933Z,15.50
2018-07-04T04:47:24.920Z,15.60
2018-07-04T04:52:50.531Z,15.90
2018-07-04T04:55:36.463Z,16.00
2018-07-04T04:58:22.369Z,16.00
2018-07-04T05:01:08.108Z,16.00
2018-07-04T05:03:53.904Z,16.10
2018-07-04T05:06:39.820Z,16.30
2018-07-04T05:09:25.596Z,16.40
2018-07-04T05:12:11.349Z,16.50
2018-07-04T05:17:36.955Z,16.90
2018-07-04T05:23:02.845Z,17.10
2018-07-04T05:25:48.790Z,17.10
2018-07-04T05:28:34.890Z,17.10
2018-07-04T05:31:20.833Z,17.30
2018-07-04T05:34:06.637Z,17.40
2018-07-04T05:39:32.000Z,17.70
2018-07-04T05:42:17.811Z,17.80
2018-07-04T05:45:03.679Z,17.90
2018-07-04T05:47:49.704Z,18.00
2018-07-04T05:50:35.451Z,18.20
2018-07-04T05:53:21.154Z,18.30
2018-07-04T05:56:07.049Z,18.40
2018-07-04T05:58:53.285Z,18.40
2018-07-04T06:01:39.102Z,18.50
2018-07-04T06:04:24.830Z,18.70
2018-07-04T06:07:10.720Z,18.40
2018-07-04T06:09:56.628Z,18.00
2018-07-04T06:12:42.330Z,18.10
2018-07-04T06:15:28.078Z,17.90
2018-07-04T06:20:53.486Z,18.10
2018-07-04T06:26:18.828Z,18.10
2018-07-04T06:29:04.715Z,18.30
2018-07-04T06:31:50.651Z,18.40
2018-07-04T06:34:36.534Z,18.50
2018-07-04T06:37:22.297Z,18.40
2018-07-04T06:39:55.622Z,18.30
2018-07-04T06:42:28.945Z,18.40
2018-07-04T06:45:02.384Z,18.50
2018-07-04T06:47:35.813Z,18.50
2018-07-04T06:50:09.149Z,18.70
2018-07-04T06:52:42.486Z,18.90
2018-07-04T07:00:23.251Z,18.90
2018-07-04T07:05:48.726Z,19.20
2018-07-04T07:08:34.649Z,19.40
2018-07-04T07:11:20.507Z,19.30
2018-07-04T07:14:06.465Z,19.60
2018-07-04T07:19:31.962Z,20.00
2018-07-04T07:22:17.706Z,20.20
2018-07-04T07:25:03.437Z,20.30
2018-07-04T07:27:49.303Z,20.20
2018-07-04T07:30:35.246Z,20.30
2018-07-04T07:33:21.117Z,20.50
2018-07-04T07:38:46.937Z,21.10
2018-07-04T07:41:32.641Z,21.30
2018-07-04T07:44:18.444Z,21.50
2018-07-04T07:47:04.243Z,21.60
2018-07-04T07:52:29.763Z,21.90
2018-07-04T08:03:14.823Z,22.30
2018-07-04T08:06:00.675Z,22.30
2018-07-04T08:08:46.346Z,22.30
2018-07-04T08:11:31.982Z,22.00
2018-07-04T08:14:17.811Z,22.30
2018-07-04T08:17:03.458Z,22.60
2018-07-04T08:19:49.197Z,22.60
2018-07-04T08:22:34.921Z,23.00
2018-07-04T08:30:40.615Z,23.10
2018-07-04T08:33:26.425Z,22.90
2018-07-04T08:36:12.191Z,23.00
2018-07-04T08:38:58.086Z,23.00
2018-07-04T08:47:03.732Z,23.00
2018-07-04T08:52:29.474Z,23.20
2018-07-04T08:57:54.968Z,23.00
2018-07-04T09:03:20.481Z,23.00
2018-07-04T09:08:46.289Z,23.10
2018-07-04T09:11:31.964Z,23.30
2018-07-04T09:14:17.531Z,23.50
2018-07-04T09:17:03.495Z,23.20
2018-07-04T09:19:49.478Z,23.20
2018-07-04T09:25:15.013Z,23.50
2018-07-04T09:28:00.797Z,23.70
2018-07-04T09:30:46.589Z,23.40
2018-07-04T09:33:33.429Z,23.40
2018-07-04T09:36:19.367Z,23.10
2018-07-04T09:39:05.365Z,23.20
2018-07-04T09:41:51.249Z,23.10
2018-07-04T09:44:37.266Z,23.20
2018-07-04T09:47:23.032Z,23.30
2018-07-04T09:52:48.490Z,23.50
2018-07-04T09:58:14.015Z,23.10
2018-07-04T10:03:45.275Z,23.20
2018-07-04T10:06:31.056Z,23.40
2018-07-04T10:11:56.579Z,23.60
2018-07-04T10:17:22.153Z,23.80
2018-07-04T10:20:07.933Z,23.60
2018-07-04T10:22:53.588Z,23.90
2018-07-04T10:25:39.237Z,24.20
2018-07-04T10:28:25.154Z,24.40
2018-07-04T10:33:50.655Z,24.60
2018-07-04T10:36:36.451Z,24.60
2018-07-04T10:39:22.370Z,24.80
2018-07-04T10:42:08.239Z,24.80
2018-07-04T10:47:33.815Z,25.10
2018-07-04T10:50:19.708Z,25.20
2018-07-04T10:53:05.531Z,25.30
2018-07-04T10:55:51.149Z,25.50
2018-07-04T10:58:36.919Z,25.70
2018-07-04T11:01:22.610Z,25.90
2018-07-04T11:04:08.367Z,26.20
2018-07-04T11:06:54.072Z,26.10
2018-07-04T11:09:39.770Z,25.70
2018-07-04T11:12:25.409Z,25.80
2018-07-04T11:15:11.162Z,25.50
2018-07-04T11:17:57.091Z,25.30
2018-07-04T11:23:22.261Z,25.70
2018-07-04T11:26:08.064Z,25.80
2018-07-04T11:28:53.795Z,26.00
2018-07-04T11:31:39.612Z,26.10
2018-07-04T11:34:25.432Z,26.00
2018-07-04T11:37:11.046Z,26.20
2018-07-04T11:39:56.750Z,26.60
2018-07-04T11:42:42.519Z,26.50
2018-07-04T11:45:28.124Z,26.10
2018-07-04T11:50:35.145Z,26.20
2018-07-04T11:53:08.662Z,26.20
2018-07-04T11:55:41.867Z,26.40
2018-07-04T11:58:15.923Z,25.90
2018-07-04T12:00:49.190Z,25.40
2018-07-04T12:03:23.415Z,25.50
2018-07-04T12:06:09.118Z,25.60
2018-07-04T12:08:42.409Z,25.30
2018-07-04T12:13:49.422Z,24.80
2018-07-04T12:16:22.875Z,24.70
2018-07-04T12:18:56.385Z,24.40
2018-07-04T12:21:29.790Z,24.20
2018-07-04T12:26:36.739Z,24.60
2018-07-04T12:29:10.697Z,24.80
2018-07-04T12:34:17.635Z,25.00
2018-07-04T12:36:51.093Z,25.00
2018-07-04T12:39:24.475Z,25.00
2018-07-04T12:41:57.913Z,24.80
2018-07-04T12:44:31.344Z,24.90
2018-07-04T12:47:04.711Z,24.90
2018-07-04T12:49:37.979Z,24.90
2018-07-04T12:52:11.367Z,24.80
2018-07-04T12:54:50.034Z,24.80
2018-07-04T12:57:35.683Z,24.70
2018-07-04T13:00:21.481Z,24.60
2018-07-04T13:05:47.300Z,24.50
2018-07-04T13:08:32.907Z,24.40
2018-07-04T13:11:18.765Z,24.40
2018-07-04T13:14:04.758Z,24.40
2018-07-04T13:19:30.406Z,24.20
2018-07-04T13:22:16.240Z,24.20
2018-07-04T13:25:01.938Z,23.70
2018-07-04T13:27:47.691Z,23.70
2018-07-04T13:30:33.460Z,23.90
2018-07-04T13:35:59.145Z,23.30
2018-07-04T13:41:24.646Z,23.10
2018-07-04T13:46:50.247Z,22.90
2018-07-04T13:52:15.779Z,22.80
2018-07-04T13:55:01.491Z,22.80
2018-07-04T13:57:47.327Z,22.70
2018-07-04T14:00:33.184Z,22.70
2018-07-04T14:05:59.108Z,22.70
2018-07-04T14:08:45.027Z,22.60
2018-07-04T14:11:30.892Z,22.80
2018-07-04T14:16:56.455Z,22.90
2018-07-04T14:22:22.054Z,23.00
2018-07-04T14:25:07.736Z,22.60
2018-07-04T14:30:33.190Z,22.70
2018-07-04T14:33:19.005Z,22.60
2018-07-04T14:36:04.966Z,22.60
2018-07-04T14:38:50.888Z,22.90
2018-07-04T14:41:36.710Z,22.90
2018-07-04T14:44:22.444Z,22.80
2018-07-04T14:47:08.102Z,23.00
2018-07-04T14:49:53.789Z,23.30
2018-07-04T14:52:39.669Z,23.50
2018-07-04T14:55:25.580Z,23.20
2018-07-04T14:58:11.451Z,23.20
2018-07-04T15:00:57.162Z,23.30
2018-07-04T15:03:42.892Z,23.60
2018-07-04T15:09:08.474Z,24.10
2018-07-04T15:11:54.135Z,24.40
2018-07-04T15:14:39.943Z,24.70
2018-07-04T15:17:25.591Z,24.90
2018-07-04T15:22:51.235Z,25.40
2018-07-04T15:25:36.939Z,25.70
2018-07-04T15:28:22.666Z,25.90
2018-07-04T15:31:08.420Z,26.00
2018-07-04T15:33:54.226Z,25.90
2018-07-04T15:36:39.917Z,26.00
2018-07-04T15:42:05.332Z,26.70
2018-07-04T15:44:51.298Z,27.30
2018-07-04T15:47:36.979Z,27.40
2018-07-04T15:50:22.990Z,27.30
2018-07-04T15:53:08.731Z,27.60
2018-07-04T15:58:34.338Z,26.90
2018-07-04T16:01:20.106Z,26.80
2018-07-04T16:04:05.754Z,26.70
2018-07-04T16:06:51.401Z,26.50
2018-07-04T16:09:37.128Z,26.40
2018-07-04T16:12:22.845Z,26.30
2018-07-04T16:15:08.452Z,26.30
2018-07-04T16:20:34.086Z,26.30
2018-07-04T16:23:19.764Z,26.50
2018-07-04T16:26:05.657Z,27.40
2018-07-04T16:28:51.511Z,28.60
2018-07-04T16:31:37.195Z,29.60
2018-07-04T16:34:23.073Z,30.40
2018-07-04T16:42:29.346Z,32.40
2018-07-04T16:47:54.976Z,32.50
2018-07-04T16:53:20.537Z,33.50
2018-07-04T16:56:06.348Z,33.90
2018-07-04T16:58:52.450Z,34.00
2018-07-04T17:01:38.243Z,34.20
2018-07-04T17:04:23.903Z,34.40
2018-07-04T17:07:09.611Z,34.80
2018-07-04T17:09:55.460Z,35.40
2018-07-04T17:12:41.233Z,35.60
2018-07-04T17:15:27.010Z,35.10
2018-07-04T17:18:12.844Z,34.30
2018-07-04T17:20:58.922Z,33.70
2018-07-04T17:23:44.655Z,33.00
2018-07-04T17:26:30.410Z,31.70
2018-07-04T17:29:16.126Z,31.10
2018-07-04T17:32:01.938Z,31.00
2018-07-04T17:34:47.535Z,31.50
2018-07-04T17:37:33.073Z,31.90
2018-07-04T17:40:18.879Z,31.80
2018-07-04T17:43:04.849Z,31.80
2018-07-04T17:48:30.245Z,31.70
2018-07-04T17:51:16.108Z,31.70
2018-07-04T17:54:01.817Z,32.10
2018-07-04T17:56:47.695Z,32.40
2018-07-04T17:59:33.436Z,32.30
2018-07-04T18:02:19.247Z,32.10
2018-07-04T18:05:04.976Z,31.70
2018-07-04T18:07:50.727Z,31.20
2018-07-04T18:10:36.526Z,30.70
2018-07-04T18:13:22.095Z,30.00
2018-07-04T18:16:08.009Z,29.30
2018-07-04T18:18:53.759Z,28.80
2018-07-04T18:21:39.506Z,28.40
2018-07-04T18:24:25.214Z,28.00
2018-07-04T18:27:11.148Z,27.60
2018-07-04T18:29:57.006Z,27.30
2018-07-04T18:32:42.919Z,27.10
2018-07-04T18:35:28.918Z,27.00
2018-07-04T18:38:15.776Z,26.80
2018-07-04T18:41:01.670Z,26.60
2018-07-04T18:43:47.503Z,26.40
2018-07-04T18:46:33.035Z,26.20
2018-07-04T18:49:18.909Z,25.90
2018-07-04T18:52:04.603Z,24.70
2018-07-04T18:54:50.595Z,24.60
2018-07-04T18:57:36.214Z,24.70
2018-07-04T19:00:22.010Z,24.70
2018-07-04T19:03:07.602Z,24.50
2018-07-04T19:08:33.415Z,22.70
2018-07-04T19:11:19.082Z,22.50
2018-07-04T19:14:04.759Z,22.50
2018-07-04T19:16:50.676Z,22.70
2018-07-04T19:19:36.448Z,22.70
2018-07-04T19:22:22.143Z,22.70
2018-07-04T19:25:08.063Z,22.60
2018-07-04T19:27:53.918Z,22.60
2018-07-04T19:30:39.709Z,22.70
2018-07-04T19:33:25.436Z,22.70
2018-07-04T19:36:11.151Z,22.80
2018-07-04T19:41:36.600Z,22.80
2018-07-04T19:44:22.355Z,22.70
2018-07-04T19:47:08.222Z,22.60
2018-07-04T19:49:53.913Z,22.50
2018-07-04T19:52:39.661Z,22.00
2018-07-04T19:55:25.399Z,20.60
2018-07-04T19:58:11.238Z,20.40
2018-07-04T20:00:57.038Z,20.20
2018-07-04T20:06:22.582Z,20.60
2018-07-04T20:09:08.300Z,20.80
2018-07-04T20:11:54.121Z,20.60
2018-07-04T20:14:39.952Z,20.70
2018-07-04T20:17:25.680Z,20.90
2018-07-04T20:20:11.470Z,20.90
2018-07-04T20:22:57.174Z,20.90
2018-07-04T20:25:43.139Z,20.90
2018-07-04T20:28:29.048Z,20.90
2018-07-04T20:31:14.900Z,20.70
2018-07-04T20:34:00.814Z,20.60
2018-07-04T20:39:26.321Z,20.50
2018-07-04T20:42:12.000Z,20.50
2018-07-04T20:47:37.544Z,18.30
2018-07-04T20:50:23.227Z,18.20
2018-07-04T20:53:09.161Z,18.10
2018-07-04T20:55:55.016Z,18.40
2018-07-04T20:58:40.831Z,18.70
2018-07-04T21:01:26.680Z,18.90
2018-07-04T21:04:12.479Z,19.00
2018-07-04T21:06:58.275Z,19.10
2018-07-04T21:09:43.894Z,19.10
2018-07-04T21:15:10.561Z,19.20
2018-07-04T21:17:56.644Z,19.20
2018-07-04T21:20:44.084Z,19.20
2018-07-04T21:23:30.075Z,19.10
2018-07-04T21:26:17.096Z,18.90
2018-07-04T21:29:03.401Z,18.90
2018-07-04T21:31:49.588Z,19.00
2018-07-04T21:34:35.608Z,18.90
2018-07-04T21:37:21.931Z,18.90
2018-07-04T21:40:08.275Z,19.00
2018-07-04T21:42:55.050Z,18.90
2018-07-04T21:48:23.669Z,18.70
2018-07-04T21:51:09.705Z,18.70
2018-07-04T21:53:55.780Z,18.70
2018-07-04T21:56:41.849Z,18.60
2018-07-04T21:59:27.930Z,18.40
2018-07-04T22:04:58.545Z,18.40
2018-07-04T22:10:24.154Z,18.30
2018-07-04T22:13:10.169Z,18.30
2018-07-04T22:15:56.125Z,18.20
2018-07-04T22:18:47.582Z,18.20
2018-07-04T22:21:34.869Z,18.10
2018-07-04T22:24:22.936Z,17.90
2018-07-04T22:27:12.548Z,17.70
2018-07-04T22:29:59.346Z,17.90
2018-07-04T22:32:45.207Z,17.80
2018-07-04T22:38:11.639Z,17.60
2018-07-04T22:40:57.895Z,17.60
2018-07-04T22:43:43.851Z,17.60
2018-07-04T22:46:29.964Z,17.40
2018-07-04T22:49:15.941Z,17.50
2018-07-04T22:52:01.942Z,17.50
2018-07-04T23:00:09.898Z,17.30
2018-07-04T23:02:56.556Z,17.30
2018-07-04T23:05:42.547Z,17.20
2018-07-04T23:08:28.655Z,17.30
2018-07-04T23:11:14.745Z,17.30
2018-07-04T23:14:00.834Z,17.30
2018-07-04T23:16:47.633Z,17.30
2018-07-04T23:19:34.790Z,17.30
2018-07-04T23:25:03.900Z,17.30
2018-07-04T23:27:49.784Z,17.30
2018-07-04T23:30:35.697Z,16.70
2018-07-04T23:36:02.370Z,16.20
2018-07-04T23:38:48.424Z,16.00
2018-07-04T23:41:34.301Z,16.30
2018-07-04T23:44:21.403Z,16.40
2018-07-04T23:49:47.539Z,16.00
2018-07-04T23:52:33.673Z,15.90
2018-07-04T23:55:19.849Z,15.80
2018-07-04T23:58:05.898Z,15.90
